Main page
Satellite images Climate Cyclones Lightning AirportsFAQ Languages Contact Newsletter About
Weather : Europe Africa North America South America Asia Australia-Oceania Others

chiang-mai-th, Chiang Mai, Chiang Mai International Airport

48327

latitude: , longitude: Thailand, elevation: 18-47N m


METAR: VTCC 290530Z 03004KT 9000 NSC 27/09 Q1017 NOSIG